sensor_id;sensor_type;location;lat;lon;timestamp;pressure;altitude;pressure_sealevel;temperature;humidity
56334;BME280;42240;53.626;55.886;2024-03-02T00:00:40;79793.09;;;-145.10;81.05
56334;BME280;42240;53.626;55.886;2024-03-02T00:02:14;79785.19;;;-145.10;81.18
56334;BME280;42240;53.626;55.886;2024-03-02T00:03:48;79789.13;;;-145.10;80.11
56334;BME280;42240;53.626;55.886;2024-03-02T00:05:22;79783.19;;;-145.10;81.59
56334;BME280;42240;53.626;55.886;2024-03-02T00:06:56;79832.69;;;-145.10;81.82
56334;BME280;42240;53.626;55.886;2024-03-02T00:08:32;79773.31;;;-145.10;81.95
56334;BME280;42240;53.626;55.886;2024-03-02T00:10:09;79739.66;;;-145.10;81.87
56334;BME280;42240;53.626;55.886;2024-03-02T00:11:46;79757.47;;;-145.10;82.19
56334;BME280;42240;53.626;55.886;2024-03-02T00:13:21;79741.66;;;-145.10;82.60
56334;BME280;42240;53.626;55.886;2024-03-02T00:14:57;79759.47;;;-145.10;83.36
56334;BME280;42240;53.626;55.886;2024-03-02T00:16:31;79769.34;;;-145.10;83.10
56334;BME280;42240;53.626;55.886;2024-03-02T00:18:05;79777.28;;;-145.10;84.21
56334;BME280;42240;53.626;55.886;2024-03-02T00:19:42;79749.56;;;-145.10;85.64
56334;BME280;42240;53.626;55.886;2024-03-02T00:21:15;79840.59;;;-145.10;87.36
56334;BME280;42240;53.626;55.886;2024-03-02T00:23:04;79721.84;;;-145.10;89.27
56334;BME280;42240;53.626;55.886;2024-03-02T00:24:39;79729.78;;;-145.10;91.12
56334;BME280;42240;53.626;55.886;2024-03-02T00:26:15;79761.44;;;-145.10;92.71
56334;BME280;42240;53.626;55.886;2024-03-02T00:27:49;79757.47;;;-145.10;93.18
56334;BME280;42240;53.626;55.886;2024-03-02T00:29:23;79755.50;;;-145.10;94.37
56334;BME280;42240;53.626;55.886;2024-03-02T00:32:43;79767.38;;;-145.10;96.15
56334;BME280;42240;53.626;55.886;2024-03-02T00:34:17;79771.31;;;-145.10;96.95
56334;BME280;42240;53.626;55.886;2024-03-02T00:35:51;79791.13;;;-145.10;98.45
56334;BME280;42240;53.626;55.886;2024-03-02T00:37:27;79799.03;;;-145.10;98.34
56334;BME280;42240;53.626;55.886;2024-03-02T00:39:02;79806.94;;;-145.10;99.00
56334;BME280;42240;53.626;55.886;2024-03-02T00:40:37;79785.19;;;-145.10;98.38
56334;BME280;42240;53.626;55.886;2024-03-02T00:42:11;79797.06;;;-145.10;99.14
56334;BME280;42240;53.626;55.886;2024-03-02T00:43:58;79779.25;;;-145.10;100.00
56334;BME280;42240;53.626;55.886;2024-03-02T00:45:33;79828.72;;;-145.10;100.00
56334;BME280;42240;53.626;55.886;2024-03-02T00:47:10;79820.81;;;-145.10;100.00
56334;BME280;42240;53.626;55.886;2024-03-02T00:48:56;79812.88;;;-145.10;100.00
56334;BME280;42240;53.626;55.886;2024-03-02T00:50:31;79844.56;;;-145.10;100.00
56334;BME280;42240;53.626;55.886;2024-03-02T00:52:05;79854.44;;;-145.10;100.00
56334;BME280;42240;53.626;55.886;2024-03-02T00:53:39;79864.34;;;-145.10;100.00
56334;BME280;42240;53.626;55.886;2024-03-02T00:55:15;79897.97;;;-145.10;100.00
56334;BME280;42240;53.626;55.886;2024-03-02T00:56:50;79876.22;;;-145.10;100.00
56334;BME280;42240;53.626;55.886;2024-03-02T00:58:26;79896.00;;;-145.10;100.00
56334;BME280;42240;53.626;55.886;2024-03-02T01:00:00;79894.03;;;-145.10;100.00
56334;BME280;42240;53.626;55.886;2024-03-02T01:01:35;79911.84;;;-145.10;100.00
56334;BME280;42240;53.626;55.886;2024-03-02T01:03:08;79935.59;;;-145.10;100.00
56334;BME280;42240;53.626;55.886;2024-03-02T01:04:43;80026.63;;;-145.10;100.00
56334;BME280;42240;53.626;55.886;2024-03-02T01:06:17;79943.50;;;-145.10;100.00
56334;BME280;42240;53.626;55.886;2024-03-02T01:07:51;79937.56;;;-145.10;100.00
56334;BME280;42240;53.626;55.886;2024-03-02T01:09:25;79947.47;;;-145.10;100.00
56334;BME280;42240;53.626;55.886;2024-03-02T01:10:59;79943.50;;;-145.10;100.00
56334;BME280;42240;53.626;55.886;2024-03-02T01:12:36;79953.41;;;-145.10;100.00
56334;BME280;42240;53.626;55.886;2024-03-02T01:14:10;79947.47;;;-145.10;100.00
56334;BME280;42240;53.626;55.886;2024-03-02T01:15:44;79939.53;;;-145.10;100.00
56334;BME280;42240;53.626;55.886;2024-03-02T01:17:18;79923.72;;;-145.10;100.00
56334;BME280;42240;53.626;55.886;2024-03-02T01:18:54;79943.50;;;-145.10;100.00
56334;BME280;42240;53.626;55.886;2024-03-02T01:20:28;79939.53;;;-145.10;100.00
56334;BME280;42240;53.626;55.886;2024-03-02T01:22:03;79935.59;;;-145.10;99.77
56334;BME280;42240;53.626;55.886;2024-03-02T01:23:36;79935.59;;;-145.10;99.91
56334;BME280;42240;53.626;55.886;2024-03-02T01:25:13;79929.66;;;-145.10;99.09
56334;BME280;42240;53.626;55.886;2024-03-02T01:26:47;79931.63;;;-145.10;98.86
56334;BME280;42240;53.626;55.886;2024-03-02T01:28:22;79949.44;;;-145.10;98.72
56334;BME280;42240;53.626;55.886;2024-03-02T01:29:58;79967.25;;;-145.10;98.86
56334;BME280;42240;53.626;55.886;2024-03-02T01:31:33;79929.66;;;-145.10;98.45
56334;BME280;42240;53.626;55.886;2024-03-02T01:33:06;79937.56;;;-145.10;98.07
56334;BME280;42240;53.626;55.886;2024-03-02T01:34:42;79911.84;;;-145.10;97.98
56334;BME280;42240;53.626;55.886;2024-03-02T01:36:16;79935.59;;;-145.10;97.33
56334;BME280;42240;53.626;55.886;2024-03-02T01:37:50;79935.59;;;-145.10;97.05
56334;BME280;42240;53.626;55.886;2024-03-02T01:39:26;79909.84;;;-145.10;96.48
56334;BME280;42240;53.626;55.886;2024-03-02T01:41:00;79923.72;;;-145.10;95.77
56334;BME280;42240;53.626;55.886;2024-03-02T01:42:38;79888.09;;;-145.10;95.49
56334;BME280;42240;53.626;55.886;2024-03-02T01:44:11;79907.88;;;-145.10;94.48
56334;BME280;42240;53.626;55.886;2024-03-02T01:45:47;79897.97;;;-145.10;93.29
56334;BME280;42240;53.626;55.886;2024-03-02T01:47:21;79929.66;;;-145.10;92.17
56334;BME280;42240;53.626;55.886;2024-03-02T01:48:54;79947.47;;;-145.10;92.12
56334;BME280;42240;53.626;55.886;2024-03-02T01:50:29;79939.53;;;-145.10;92.25
56334;BME280;42240;53.626;55.886;2024-03-02T01:52:03;79933.59;;;-145.10;92.48
56334;BME280;42240;53.626;55.886;2024-03-02T01:53:38;79939.53;;;-145.10;91.44
56334;BME280;42240;53.626;55.886;2024-03-02T01:55:11;79935.59;;;-145.10;91.06
56334;BME280;42240;53.626;55.886;2024-03-02T01:56:45;79973.19;;;-145.10;90.79
56334;BME280;42240;53.626;55.886;2024-03-02T01:58:19;79969.22;;;-145.10;91.80
56334;BME280;42240;53.626;55.886;2024-03-02T01:59:53;79987.03;;;-145.10;94.49
56334;BME280;42240;53.626;55.886;2024-03-02T02:01:27;79967.25;;;-145.10;95.79
56334;BME280;42240;53.626;55.886;2024-03-02T02:03:03;79947.47;;;-145.10;95.98
56334;BME280;42240;53.626;55.886;2024-03-02T02:04:37;79915.78;;;-145.10;95.46
56334;BME280;42240;53.626;55.886;2024-03-02T02:06:10;79907.88;;;-145.10;95.44
56334;BME280;42240;53.626;55.886;2024-03-02T02:07:45;79937.56;;;-145.10;94.45
56334;BME280;42240;53.626;55.886;2024-03-02T02:09:20;79951.41;;;-145.10;95.09
56334;BME280;42240;53.626;55.886;2024-03-02T02:10:54;79953.41;;;-145.10;94.85
56334;BME280;42240;53.626;55.886;2024-03-02T02:12:28;79975.16;;;-145.10;96.04
56334;BME280;42240;53.626;55.886;2024-03-02T02:14:02;79925.69;;;-145.10;95.90
56334;BME280;42240;53.626;55.886;2024-03-02T02:15:36;79943.50;;;-145.10;96.02
56334;BME280;42240;53.626;55.886;2024-03-02T02:17:09;79975.16;;;-145.10;96.43
56334;BME280;42240;53.626;55.886;2024-03-02T02:18:43;79888.09;;;-145.10;95.62
56334;BME280;42240;53.626;55.886;2024-03-02T02:20:17;79886.13;;;-145.10;95.17
56334;BME280;42240;53.626;55.886;2024-03-02T02:21:50;79868.31;;;-145.10;93.97
56334;BME280;42240;53.626;55.886;2024-03-02T02:23:22;79874.25;;;-145.10;93.57
56334;BME280;42240;53.626;55.886;2024-03-02T02:24:55;79880.19;;;-145.10;93.77
56334;BME280;42240;53.626;55.886;2024-03-02T02:26:29;79856.44;;;-145.10;93.40
56334;BME280;42240;53.626;55.886;2024-03-02T02:28:06;79947.47;;;-145.10;93.19
56334;BME280;42240;53.626;55.886;2024-03-02T02:29:39;79955.38;;;-145.10;92.26
56334;BME280;42240;53.626;55.886;2024-03-02T02:31:13;79919.75;;;-145.10;91.67
56334;BME280;42240;53.626;55.886;2024-03-02T02:32:46;79842.56;;;-145.10;91.01
56334;BME280;42240;53.626;55.886;2024-03-02T02:34:19;79876.22;;;-145.10;91.32
56334;BME280;42240;53.626;55.886;2024-03-02T02:35:53;79842.56;;;-145.10;91.15
56334;BME280;42240;53.626;55.886;2024-03-02T02:37:29;79872.25;;;-145.10;91.13
56334;BME280;42240;53.626;55.886;2024-03-02T02:39:04;79894.03;;;-145.10;91.81
56334;BME280;42240;53.626;55.886;2024-03-02T02:40:39;79911.84;;;-145.10;91.23
56334;BME280;42240;53.626;55.886;2024-03-02T02:42:13;79888.09;;;-145.10;91.27
56334;BME280;42240;53.626;55.886;2024-03-02T02:43:47;79888.09;;;-145.10;90.75
56334;BME280;42240;53.626;55.886;2024-03-02T02:45:22;79886.13;;;-145.10;90.81
56334;BME280;42240;53.626;55.886;2024-03-02T02:47:00;79884.13;;;-145.10;89.91
56334;BME280;42240;53.626;55.886;2024-03-02T02:48:34;79896.00;;;-145.10;89.05
56334;BME280;42240;53.626;55.886;2024-03-02T02:50:12;79880.19;;;-145.10;87.85
56334;BME280;42240;53.626;55.886;2024-03-02T02:51:47;79897.97;;;-145.10;86.64
56334;BME280;42240;53.626;55.886;2024-03-02T02:53:20;79925.69;;;-145.10;86.57
56334;BME280;42240;53.626;55.886;2024-03-02T02:54:56;79901.94;;;-145.10;86.43
56334;BME280;42240;53.626;55.886;2024-03-02T02:56:30;79923.72;;;-145.10;85.99
56334;BME280;42240;53.626;55.886;2024-03-02T02:58:03;79919.75;;;-145.10;85.33
56334;BME280;42240;53.626;55.886;2024-03-02T02:59:37;79963.28;;;-145.10;86.54
56334;BME280;42240;53.626;55.886;2024-03-02T03:01:10;79949.44;;;-145.10;85.92
56334;BME280;42240;53.626;55.886;2024-03-02T03:02:49;79931.63;;;-145.10;84.53
56334;BME280;42240;53.626;55.886;2024-03-02T03:04:25;79959.34;;;-145.10;82.32
56334;BME280;42240;53.626;55.886;2024-03-02T03:06:00;79983.09;;;-145.10;82.40
56334;BME280;42240;53.626;55.886;2024-03-02T03:07:35;79975.16;;;-145.10;84.38
56334;BME280;42240;53.626;55.886;2024-03-02T03:09:09;79985.06;;;-145.10;85.21
56334;BME280;42240;53.626;55.886;2024-03-02T03:10:44;80024.66;;;-145.10;85.24
56334;BME280;42240;53.626;55.886;2024-03-02T03:12:20;80002.88;;;-145.10;84.03
56334;BME280;42240;53.626;55.886;2024-03-02T03:13:54;80004.84;;;-145.10;84.57
56334;BME280;42240;53.626;55.886;2024-03-02T03:15:27;80002.88;;;-145.10;84.93
56334;BME280;42240;53.626;55.886;2024-03-02T03:17:01;79992.97;;;-145.10;85.37
56334;BME280;42240;53.626;55.886;2024-03-02T03:18:36;79994.97;;;-145.10;86.03
56334;BME280;42240;53.626;55.886;2024-03-02T03:20:11;80012.78;;;-145.10;86.19
56334;BME280;42240;53.626;55.886;2024-03-02T03:21:45;79971.22;;;-145.10;85.92
56334;BME280;42240;53.626;55.886;2024-03-02T03:23:19;79975.16;;;-145.10;85.38
56334;BME280;42240;53.626;55.886;2024-03-02T03:24:53;79979.13;;;-145.10;84.66
56334;BME280;42240;53.626;55.886;2024-03-02T03:26:27;79977.16;;;-145.10;85.40
56334;BME280;42240;53.626;55.886;2024-03-02T03:28:06;79979.13;;;-145.10;84.62
56334;BME280;42240;53.626;55.886;2024-03-02T03:29:39;79953.41;;;-145.10;86.08
56334;BME280;42240;53.626;55.886;2024-03-02T03:31:13;79967.25;;;-145.10;85.72
56334;BME280;42240;53.626;55.886;2024-03-02T03:32:49;79963.28;;;-145.10;86.77
56334;BME280;42240;53.626;55.886;2024-03-02T03:34:22;79967.25;;;-145.10;88.02
56334;BME280;42240;53.626;55.886;2024-03-02T03:36:00;79953.41;;;-145.10;89.20
56334;BME280;42240;53.626;55.886;2024-03-02T03:37:42;79943.50;;;-145.10;89.71
56334;BME280;42240;53.626;55.886;2024-03-02T03:39:17;79989.03;;;-145.10;90.33
56334;BME280;42240;53.626;55.886;2024-03-02T03:40:51;79911.84;;;-145.10;90.00
56334;BME280;42240;53.626;55.886;2024-03-02T03:42:24;79896.00;;;-145.10;89.85
56334;BME280;42240;53.626;55.886;2024-03-02T03:44:01;79884.13;;;-145.10;89.60
56334;BME280;42240;53.626;55.886;2024-03-02T03:45:35;79899.97;;;-145.10;88.81
56334;BME280;42240;53.626;55.886;2024-03-02T03:47:10;79896.00;;;-145.10;90.30
56334;BME280;42240;53.626;55.886;2024-03-02T03:48:47;79901.94;;;-145.10;90.48
56334;BME280;42240;53.626;55.886;2024-03-02T03:50:24;79864.34;;;-145.10;90.75
56334;BME280;42240;53.626;55.886;2024-03-02T03:52:01;79874.25;;;-145.10;90.52
56334;BME280;42240;53.626;55.886;2024-03-02T03:53:37;79915.78;;;-145.10;90.30
56334;BME280;42240;53.626;55.886;2024-03-02T03:55:11;79860.38;;;-145.10;90.58
56334;BME280;42240;53.626;55.886;2024-03-02T03:56:45;79820.81;;;-145.10;90.46
56334;BME280;42240;53.626;55.886;2024-03-02T03:58:18;79826.75;;;-145.10;89.88
56334;BME280;42240;53.626;55.886;2024-03-02T03:59:55;79844.56;;;-145.10;89.91
56334;BME280;42240;53.626;55.886;2024-03-02T04:01:28;79824.75;;;-145.10;89.79
56334;BME280;42240;53.626;55.886;2024-03-02T04:03:02;79781.22;;;-145.10;89.06
56334;BME280;42240;53.626;55.886;2024-03-02T04:04:35;79769.34;;;-145.10;88.93
56334;BME280;42240;53.626;55.886;2024-03-02T04:06:09;79767.38;;;-145.10;87.13
56334;BME280;42240;53.626;55.886;2024-03-02T04:07:43;79759.47;;;-145.10;85.65
56334;BME280;42240;53.626;55.886;2024-03-02T04:09:16;79739.66;;;-145.10;84.96
56334;BME280;42240;53.626;55.886;2024-03-02T04:10:50;79731.75;;;-145.10;83.62
56334;BME280;42240;53.626;55.886;2024-03-02T04:12:23;79729.78;;;-145.10;83.70
56334;BME280;42240;53.626;55.886;2024-03-02T04:13:57;79725.81;;;-145.10;83.09
56334;BME280;42240;53.626;55.886;2024-03-02T04:15:34;79785.19;;;-145.10;81.84
56334;BME280;42240;53.626;55.886;2024-03-02T04:17:07;79711.97;;;-145.10;82.16
56334;BME280;42240;53.626;55.886;2024-03-02T04:18:49;79678.31;;;-145.10;81.73
56334;BME280;42240;53.626;55.886;2024-03-02T04:20:22;79622.91;;;-145.10;80.96
56334;BME280;42240;53.626;55.886;2024-03-02T04:21:55;79571.47;;;-145.10;79.23
56334;BME280;42240;53.626;55.886;2024-03-02T04:23:32;79508.13;;;-145.10;76.85
56334;BME280;42240;53.626;55.886;2024-03-02T04:25:09;79563.53;;;-145.10;74.06
56334;BME280;42240;53.626;55.886;2024-03-02T04:26:42;79436.91;;;-145.10;72.11
56334;BME280;42240;53.626;55.886;2024-03-02T04:28:16;79470.53;;;-145.10;70.99
56334;BME280;42240;53.626;55.886;2024-03-02T04:29:50;79367.63;;;-145.10;70.32
56334;BME280;42240;53.626;55.886;2024-03-02T04:31:23;79296.41;;;-145.10;67.95
56334;BME280;42240;53.626;55.886;2024-03-02T04:32:56;79258.81;;;-145.10;65.31
56334;BME280;42240;53.626;55.886;2024-03-02T04:34:28;79286.50;;;-145.10;61.76
56334;BME280;42240;53.626;55.886;2024-03-02T04:36:02;79181.63;;;-145.10;60.12
56334;BME280;42240;53.626;55.886;2024-03-02T04:37:41;79066.88;;;-145.10;57.98
56334;BME280;42240;53.626;55.886;2024-03-02T04:39:16;78977.84;;;-145.10;55.44
56334;BME280;42240;53.626;55.886;2024-03-02T04:40:50;78969.94;;;-145.10;53.14
56334;BME280;42240;53.626;55.886;2024-03-02T04:42:23;79005.53;;;-145.10;51.92
56334;BME280;42240;53.626;55.886;2024-03-02T04:43:57;78983.78;;;-145.10;50.88
56334;BME280;42240;53.626;55.886;2024-03-02T04:45:30;78946.19;;;-145.10;50.63
56334;BME280;42240;53.626;55.886;2024-03-02T04:47:04;78888.81;;;-145.10;50.55
56334;BME280;42240;53.626;55.886;2024-03-02T04:48:38;78821.53;;;-145.10;50.35
56334;BME280;42240;53.626;55.886;2024-03-02T04:50:12;78795.81;;;-145.10;49.52
56334;BME280;42240;53.626;55.886;2024-03-02T04:51:45;78744.38;;;-145.10;48.94
56334;BME280;42240;53.626;55.886;2024-03-02T04:53:19;78665.25;;;-145.10;48.82
56334;BME280;42240;53.626;55.886;2024-03-02T04:54:52;78586.09;;;-145.10;48.05
56334;BME280;42240;53.626;55.886;2024-03-02T04:57:04;78510.94;;;-145.10;45.94
56334;BME280;42240;53.626;55.886;2024-03-02T04:58:38;78471.34;;;-145.10;46.25
56334;BME280;42240;53.626;55.886;2024-03-02T05:00:13;78508.94;;;-145.10;44.74
56334;BME280;42240;53.626;55.886;2024-03-02T05:01:47;78400.13;;;-145.10;44.27
56334;BME280;42240;53.626;55.886;2024-03-02T05:03:20;78360.56;;;-145.10;43.21
56334;BME280;42240;53.626;55.886;2024-03-02T05:04:53;78261.66;;;-145.10;43.41
56334;BME280;42240;53.626;55.886;2024-03-02T05:06:26;78301.22;;;-145.10;42.45
56334;BME280;42240;53.626;55.886;2024-03-02T05:08:00;78321.00;;;-145.10;42.51
56334;BME280;42240;53.626;55.886;2024-03-02T05:09:33;78273.53;;;-145.10;41.51
56334;BME280;42240;53.626;55.886;2024-03-02T05:11:06;78412.00;;;-145.10;41.32
56334;BME280;42240;53.626;55.886;2024-03-02T05:13:01;78562.38;;;-145.10;41.99
56334;BME280;42240;53.626;55.886;2024-03-02T05:14:35;78508.94;;;-145.10;41.50
56334;BME280;42240;53.626;55.886;2024-03-02T05:16:09;78562.38;;;-145.10;41.29
56334;BME280;42240;53.626;55.886;2024-03-02T05:17:42;78679.09;;;-145.10;41.89
56334;BME280;42240;53.626;55.886;2024-03-02T05:19:16;78580.16;;;-145.10;42.64
56334;BME280;42240;53.626;55.886;2024-03-02T05:20:50;78510.94;;;-145.10;41.79
56334;BME280;42240;53.626;55.886;2024-03-02T05:22:24;78524.78;;;-145.10;41.02
56334;BME280;42240;53.626;55.886;2024-03-02T05:23:57;78601.94;;;-145.10;41.29
56334;BME280;42240;53.626;55.886;2024-03-02T05:25:30;78586.09;;;-145.10;41.55
56334;BME280;42240;53.626;55.886;2024-03-02T05:27:04;78566.31;;;-145.10;41.50
56334;BME280;42240;53.626;55.886;2024-03-02T05:28:39;78582.16;;;-145.10;41.11
56334;BME280;42240;53.626;55.886;2024-03-02T05:30:12;78603.91;;;-145.10;40.76
56334;BME280;42240;53.626;55.886;2024-03-02T05:31:46;78681.06;;;-145.10;41.19
56334;BME280;42240;53.626;55.886;2024-03-02T05:33:19;78669.19;;;-145.10;41.35
56334;BME280;42240;53.626;55.886;2024-03-02T05:34:55;78669.19;;;-145.10;41.11
56334;BME280;42240;53.626;55.886;2024-03-02T05:36:28;78754.28;;;-145.10;40.99
56334;BME280;42240;53.626;55.886;2024-03-02T05:38:02;78736.47;;;-145.10;41.70
56334;BME280;42240;53.626;55.886;2024-03-02T05:39:35;78776.03;;;-145.10;41.70
56334;BME280;42240;53.626;55.886;2024-03-02T05:41:08;78540.59;;;-145.10;41.89
56334;BME280;42240;53.626;55.886;2024-03-02T05:42:41;78376.41;;;-145.10;40.76
56334;BME280;42240;53.626;55.886;2024-03-02T05:44:14;78289.34;;;-145.10;39.86
56334;BME280;42240;53.626;55.886;2024-03-02T05:45:48;78388.28;;;-145.10;39.55
56334;BME280;42240;53.626;55.886;2024-03-02T05:47:22;78350.69;;;-145.10;39.20
56334;BME280;42240;53.626;55.886;2024-03-02T05:49:01;78285.41;;;-145.10;39.07
56334;BME280;42240;53.626;55.886;2024-03-02T05:50:35;78245.84;;;-145.10;38.83
56334;BME280;42240;53.626;55.886;2024-03-02T05:52:09;78194.41;;;-145.10;38.24
56334;BME280;42240;53.626;55.886;2024-03-02T05:53:43;78303.22;;;-145.10;38.33
56334;BME280;42240;53.626;55.886;2024-03-02T05:55:16;78299.25;;;-145.10;37.87
56334;BME280;42240;53.626;55.886;2024-03-02T05:56:49;78410.03;;;-145.10;38.00
56334;BME280;42240;53.626;55.886;2024-03-02T05:58:22;78417.94;;;-145.10;38.20
56334;BME280;42240;53.626;55.886;2024-03-02T06:00:31;78354.63;;;-145.10;37.67
56334;BME280;42240;53.626;55.886;2024-03-02T06:02:04;78408.06;;;-145.10;37.56
56334;BME280;42240;53.626;55.886;2024-03-02T06:03:38;78315.06;;;-145.10;37.07
56334;BME280;42240;53.626;55.886;2024-03-02T06:05:11;78257.72;;;-145.10;37.42
56334;BME280;42240;53.626;55.886;2024-03-02T06:06:45;78115.28;;;-145.10;40.51
56334;BME280;42240;53.626;55.886;2024-03-02T06:08:18;78206.28;;;-145.10;37.34
56334;BME280;42240;53.626;55.886;2024-03-02T06:09:52;78050.00;;;-145.10;37.10
56334;BME280;42240;53.626;55.886;2024-03-02T06:11:25;78055.94;;;-145.10;36.11
56334;BME280;42240;53.626;55.886;2024-03-02T06:12:59;78008.47;;;-145.10;36.28
56334;BME280;42240;53.626;55.886;2024-03-02T06:14:32;78075.72;;;-145.10;35.99
56334;BME280;42240;53.626;55.886;2024-03-02T06:16:07;78036.16;;;-145.10;35.93
56334;BME280;42240;53.626;55.886;2024-03-02T06:17:41;77990.66;;;-145.10;35.71
56334;BME280;42240;53.626;55.886;2024-03-02T06:19:18;78042.09;;;-145.10;35.46
56334;BME280;42240;53.626;55.886;2024-03-02T06:20:51;77875.94;;;-145.10;35.32
56334;BME280;42240;53.626;55.886;2024-03-02T06:22:24;77941.22;;;-145.10;35.60
56334;BME280;42240;53.626;55.886;2024-03-02T06:23:58;77933.28;;;-145.10;35.21
56334;BME280;42240;53.626;55.886;2024-03-02T06:25:31;78020.31;;;-145.10;35.19
56334;BME280;42240;53.626;55.886;2024-03-02T06:27:07;78170.66;;;-145.10;35.71
56334;BME280;42240;53.626;55.886;2024-03-02T06:28:41;78142.97;;;-145.10;35.94
56334;BME280;42240;53.626;55.886;2024-03-02T06:30:21;77933.28;;;-145.10;36.62
56334;BME280;42240;53.626;55.886;2024-03-02T06:31:54;77838.34;;;-145.10;35.34
56334;BME280;42240;53.626;55.886;2024-03-02T06:33:27;77838.34;;;-145.10;35.46
56334;BME280;42240;53.626;55.886;2024-03-02T06:35:01;77790.88;;;-145.10;34.79
56334;BME280;42240;53.626;55.886;2024-03-02T06:36:35;77856.16;;;-145.10;34.44
56334;BME280;42240;53.626;55.886;2024-03-02T06:38:08;77856.16;;;-145.10;34.83
56334;BME280;42240;53.626;55.886;2024-03-02T06:39:46;77826.47;;;-145.10;35.42
56334;BME280;42240;53.626;55.886;2024-03-02T06:41:31;77899.66;;;-145.10;34.65
56334;BME280;42240;53.626;55.886;2024-03-02T06:43:12;77992.63;;;-145.10;34.77
56334;BME280;42240;53.626;55.886;2024-03-02T06:44:46;78008.47;;;-145.10;35.23
56334;BME280;42240;53.626;55.886;2024-03-02T06:46:20;78204.28;;;-145.10;35.42
56334;BME280;42240;53.626;55.886;2024-03-02T06:47:53;78328.94;;;-145.10;36.61
56334;BME280;42240;53.626;55.886;2024-03-02T06:49:29;78321.00;;;-145.10;36.91
56334;BME280;42240;53.626;55.886;2024-03-02T06:51:03;78340.78;;;-145.10;37.08
56334;BME280;42240;53.626;55.886;2024-03-02T06:52:36;78410.03;;;-145.10;37.70
56334;BME280;42240;53.626;55.886;2024-03-02T06:54:10;78299.25;;;-145.10;38.07
56334;BME280;42240;53.626;55.886;2024-03-02T06:55:44;78526.75;;;-145.10;38.24
56334;BME280;42240;53.626;55.886;2024-03-02T06:57:18;78443.66;;;-145.10;38.71
56334;BME280;42240;53.626;55.886;2024-03-02T06:58:52;78483.22;;;-145.10;38.62
56334;BME280;42240;53.626;55.886;2024-03-02T07:00:37;78378.38;;;-145.10;39.13
56334;BME280;42240;53.626;55.886;2024-03-02T07:02:29;78431.78;;;-145.10;38.50
56334;BME280;42240;53.626;55.886;2024-03-02T07:04:02;78374.44;;;-145.10;38.56
56334;BME280;42240;53.626;55.886;2024-03-02T07:05:38;78295.28;;;-145.10;38.61
56334;BME280;42240;53.626;55.886;2024-03-02T07:07:11;78279.47;;;-145.10;38.41
56334;BME280;42240;53.626;55.886;2024-03-02T07:08:44;78419.94;;;-145.10;38.09
56334;BME280;42240;53.626;55.886;2024-03-02T07:10:18;78435.75;;;-145.10;38.98
56334;BME280;42240;53.626;55.886;2024-03-02T07:11:51;78364.53;;;-145.10;39.19
56334;BME280;42240;53.626;55.886;2024-03-02T07:13:24;78463.44;;;-145.10;38.66
56334;BME280;42240;53.626;55.886;2024-03-02T07:14:58;78402.13;;;-145.10;39.45
56334;BME280;42240;53.626;55.886;2024-03-02T07:16:37;78475.31;;;-145.10;38.66
56334;BME280;42240;53.626;55.886;2024-03-02T07:18:12;78388.28;;;-145.10;39.29
56334;BME280;42240;53.626;55.886;2024-03-02T07:19:47;78425.84;;;-145.10;38.80
56334;BME280;42240;53.626;55.886;2024-03-02T07:21:20;78506.97;;;-145.10;39.13
56334;BME280;42240;53.626;55.886;2024-03-02T07:22:55;78510.94;;;-145.10;40.02
56334;BME280;42240;53.626;55.886;2024-03-02T07:24:28;78615.78;;;-145.10;40.02
56334;BME280;42240;53.626;55.886;2024-03-02T07:26:02;78651.38;;;-145.10;41.00
56334;BME280;42240;53.626;55.886;2024-03-02T07:27:39;78499.06;;;-145.10;41.40
56334;BME280;42240;53.626;55.886;2024-03-02T07:29:15;78506.97;;;-145.10;40.53
56334;BME280;42240;53.626;55.886;2024-03-02T07:31:02;78495.09;;;-145.10;41.25
56334;BME280;42240;53.626;55.886;2024-03-02T07:32:45;78495.09;;;-145.10;41.02
56334;BME280;42240;53.626;55.886;2024-03-02T07:34:19;78439.72;;;-145.10;40.87
56334;BME280;42240;53.626;55.886;2024-03-02T07:35:56;78408.06;;;-145.10;40.92
56334;BME280;42240;53.626;55.886;2024-03-02T07:37:32;78467.41;;;-145.10;40.39
56334;BME280;42240;53.626;55.886;2024-03-02T07:39:05;78463.44;;;-145.10;40.49
56334;BME280;42240;53.626;55.886;2024-03-02T07:40:40;78534.66;;;-145.10;40.43
56334;BME280;42240;53.626;55.886;2024-03-02T07:42:14;78518.84;;;-145.10;41.02
56334;BME280;42240;53.626;55.886;2024-03-02T07:43:47;78503.00;;;-145.10;41.50
56334;BME280;42240;53.626;55.886;2024-03-02T07:45:21;78566.31;;;-145.10;40.67
56334;BME280;42240;53.626;55.886;2024-03-02T07:46:54;78542.59;;;-145.10;41.26
56334;BME280;42240;53.626;55.886;2024-03-02T07:48:28;78538.63;;;-145.10;40.81
56334;BME280;42240;53.626;55.886;2024-03-02T07:50:02;78439.72;;;-145.10;40.75
56334;BME280;42240;53.626;55.886;2024-03-02T07:51:39;78396.19;;;-145.10;40.60
56334;BME280;42240;53.626;55.886;2024-03-02T07:53:13;78415.97;;;-145.10;40.51
56334;BME280;42240;53.626;55.886;2024-03-02T07:54:48;78398.16;;;-145.10;39.84
56334;BME280;42240;53.626;55.886;2024-03-02T07:56:24;78520.81;;;-145.10;40.10
56334;BME280;42240;53.626;55.886;2024-03-02T07:57:58;78558.41;;;-145.10;40.82
56334;BME280;42240;53.626;55.886;2024-03-02T07:59:32;78655.34;;;-145.10;41.08
56334;BME280;42240;53.626;55.886;2024-03-02T08:01:07;78706.78;;;-145.10;41.91
56334;BME280;42240;53.626;55.886;2024-03-02T08:02:41;78688.97;;;-145.10;41.88
56334;BME280;42240;53.626;55.886;2024-03-02T08:04:15;78617.75;;;-145.10;41.79
56334;BME280;42240;53.626;55.886;2024-03-02T08:05:49;78491.16;;;-145.10;41.59